createdAt,value
2022-09-23T00:01:08.126Z,10.70
2022-09-23T00:03:37.319Z,10.70
2022-09-23T00:06:24.040Z,10.70
2022-09-23T00:08:52.040Z,10.70
2022-09-23T00:11:21.959Z,10.70
2022-09-23T00:13:51.220Z,10.80
2022-09-23T00:16:28.539Z,10.70
2022-09-23T00:18:55.467Z,10.70
2022-09-23T00:21:22.952Z,10.70
2022-09-23T00:23:50.113Z,10.60
2022-09-23T00:26:19.085Z,10.60
2022-09-23T00:28:46.865Z,10.60
2022-09-23T00:31:22.795Z,10.60
2022-09-23T00:33:57.866Z,10.50
2022-09-23T00:36:25.283Z,10.60
2022-09-23T00:38:53.096Z,10.50
2022-09-23T00:41:20.115Z,10.60
2022-09-23T00:43:53.538Z,10.60
2022-09-23T00:46:43.577Z,10.60
2022-09-23T00:49:27.214Z,10.60
2022-09-23T00:51:58.486Z,10.60
2022-09-23T00:54:27.648Z,10.60
2022-09-23T00:56:56.110Z,10.60
2022-09-23T00:59:24.407Z,10.60
2022-09-23T01:01:54.684Z,10.50
2022-09-23T01:04:24.543Z,10.50
2022-09-23T01:06:51.333Z,10.50
2022-09-23T01:09:18.581Z,10.50
2022-09-23T01:12:18.496Z,10.50
2022-09-23T01:14:45.330Z,10.50
2022-09-23T01:17:30.657Z,10.40
2022-09-23T01:20:31.402Z,10.40
2022-09-23T01:23:39.383Z,10.40
2022-09-23T01:26:12.007Z,10.30
2022-09-23T01:29:16.681Z,10.30
2022-09-23T01:31:55.676Z,10.30
2022-09-23T01:34:28.245Z,10.20
2022-09-23T01:37:07.273Z,10.20
2022-09-23T01:39:53.368Z,10.20
2022-09-23T01:42:29.598Z,10.20
2022-09-23T01:45:02.137Z,10.20
2022-09-23T01:47:54.943Z,10.10
2022-09-23T01:50:48.911Z,10.10
2022-09-23T01:53:22.184Z,10.10
2022-09-23T01:55:52.936Z,10.20
2022-09-23T01:58:30.471Z,10.10
2022-09-23T02:01:08.481Z,10.10
2022-09-23T02:03:52.600Z,10.00
2022-09-23T02:06:36.375Z,10.00
2022-09-23T02:09:09.122Z,10.00
2022-09-23T02:11:37.007Z,10.00
2022-09-23T02:14:24.496Z,10.00
2022-09-23T02:16:55.922Z,10.00
2022-09-23T02:19:46.320Z,10.00
2022-09-23T02:22:19.364Z,9.90
2022-09-23T02:24:46.181Z,9.90
2022-09-23T02:27:35.084Z,9.90
2022-09-23T02:30:15.507Z,9.80
2022-09-23T02:32:58.920Z,9.90
2022-09-23T02:35:35.390Z,9.80
2022-09-23T02:38:24.327Z,9.80
2022-09-23T02:40:59.935Z,9.80
2022-09-23T02:43:46.239Z,9.80
2022-09-23T02:46:13.425Z,9.80
2022-09-23T02:49:00.980Z,9.80
2022-09-23T02:51:28.959Z,9.70
2022-09-23T02:53:57.688Z,9.80
2022-09-23T02:56:24.965Z,9.70
2022-09-23T02:58:54.193Z,9.60
2022-09-23T03:01:27.045Z,9.60
2022-09-23T03:04:30.885Z,9.60
2022-09-23T03:07:02.791Z,9.60
2022-09-23T03:09:35.021Z,9.60
2022-09-23T03:12:13.225Z,9.50
2022-09-23T03:15:02.395Z,9.50
2022-09-23T03:17:38.327Z,9.50
2022-09-23T03:20:15.321Z,9.50
2022-09-23T03:22:49.870Z,9.40
2022-09-23T03:25:21.860Z,9.40
2022-09-23T03:27:48.709Z,9.40
2022-09-23T03:30:18.257Z,9.40
2022-09-23T03:32:47.112Z,9.40
2022-09-23T03:35:14.706Z,9.40
2022-09-23T03:37:56.505Z,9.40
2022-09-23T03:40:35.317Z,9.30
2022-09-23T03:43:04.489Z,9.30
2022-09-23T03:45:33.947Z,9.30
2022-09-23T03:48:01.586Z,9.30
2022-09-23T03:50:28.559Z,9.30
2022-09-23T03:52:55.744Z,9.30
2022-09-23T03:55:22.635Z,9.30
2022-09-23T03:57:49.499Z,9.20
2022-09-23T04:00:16.813Z,9.20
2022-09-23T04:02:44.134Z,9.20
2022-09-23T04:05:12.224Z,9.20
2022-09-23T04:07:39.149Z,9.20
2022-09-23T04:10:07.762Z,9.20
2022-09-23T04:12:34.495Z,9.20
2022-09-23T04:15:01.312Z,9.10
2022-09-23T04:17:28.324Z,9.10
2022-09-23T04:19:55.084Z,9.10
2022-09-23T04:22:21.967Z,9.10
2022-09-23T04:24:49.245Z,9.10
2022-09-23T04:27:15.987Z,9.10
2022-09-23T04:29:42.902Z,9.00
2022-09-23T04:32:10.207Z,9.00
2022-09-23T04:34:37.054Z,9.10
2022-09-23T04:37:03.988Z,9.00
2022-09-23T04:39:30.949Z,9.00
2022-09-23T04:41:57.844Z,9.00
2022-09-23T04:44:25.584Z,8.90
2022-09-23T04:46:52.572Z,8.90
2022-09-23T04:49:19.520Z,9.00
2022-09-23T04:51:46.464Z,9.00
2022-09-23T04:54:14.947Z,8.90
2022-09-23T04:56:42.388Z,8.90
2022-09-23T04:59:09.281Z,8.90
2022-09-23T05:01:36.499Z,9.00
2022-09-23T05:04:08.549Z,8.90
2022-09-23T05:06:36.456Z,9.00
2022-09-23T05:09:06.504Z,8.90
2022-09-23T05:11:34.612Z,8.90
2022-09-23T05:14:01.653Z,8.80
2022-09-23T05:16:29.431Z,8.80
2022-09-23T05:18:56.278Z,8.90
2022-09-23T05:21:25.459Z,8.90
2022-09-23T05:23:54.959Z,8.90
2022-09-23T05:26:23.534Z,8.90
2022-09-23T05:28:50.370Z,8.90
2022-09-23T05:31:20.760Z,8.80
2022-09-23T05:33:52.029Z,8.80
2022-09-23T05:36:20.654Z,8.80
2022-09-23T05:38:51.399Z,8.80
2022-09-23T05:41:22.883Z,8.80
2022-09-23T05:43:53.944Z,8.80
2022-09-23T05:46:27.854Z,8.80
2022-09-23T05:49:02.562Z,8.80
2022-09-23T05:51:31.335Z,8.80
2022-09-23T05:53:59.217Z,8.80
2022-09-23T05:56:28.187Z,8.70
2022-09-23T05:58:57.149Z,8.70
2022-09-23T06:01:26.396Z,8.70
2022-09-23T06:03:54.928Z,8.80
2022-09-23T06:06:31.029Z,8.70
2022-09-23T06:09:01.715Z,8.70
2022-09-23T06:11:33.519Z,8.70
2022-09-23T06:14:03.987Z,8.70
2022-09-23T06:16:33.717Z,8.70
2022-09-23T06:19:05.867Z,8.70
2022-09-23T06:21:35.458Z,8.80
2022-09-23T06:24:03.262Z,8.90
2022-09-23T06:26:33.752Z,8.80
2022-09-23T06:29:02.793Z,8.90
2022-09-23T06:31:29.891Z,9.00
2022-09-23T06:34:07.429Z,9.00
2022-09-23T06:36:43.284Z,9.00
2022-09-23T06:39:12.041Z,9.20
2022-09-23T06:41:39.339Z,9.20
2022-09-23T06:44:06.312Z,9.20
2022-09-23T06:46:33.478Z,9.30
2022-09-23T06:49:02.102Z,9.40
2022-09-23T06:51:28.893Z,9.50
2022-09-23T06:53:55.971Z,9.50
2022-09-23T06:56:23.674Z,9.60
2022-09-23T06:58:52.651Z,9.60
2022-09-23T07:01:19.840Z,9.80
2022-09-23T07:03:48.310Z,9.90
2022-09-23T07:06:15.495Z,10.00
2022-09-23T07:08:49.022Z,10.00
2022-09-23T07:11:19.297Z,10.10
2022-09-23T07:13:46.046Z,10.10
2022-09-23T07:16:12.977Z,10.20
2022-09-23T07:18:40.769Z,10.20
2022-09-23T07:21:15.155Z,10.30
2022-09-23T07:23:50.383Z,10.30
2022-09-23T07:26:19.013Z,10.30
2022-09-23T07:28:45.816Z,10.40
2022-09-23T07:31:22.203Z,10.50
2022-09-23T07:33:57.688Z,10.50
2022-09-23T07:36:25.118Z,10.60
2022-09-23T07:38:51.983Z,10.60
2022-09-23T07:41:19.368Z,10.60
2022-09-23T07:43:47.206Z,10.70
2022-09-23T07:46:17.426Z,10.70
2022-09-23T07:48:45.743Z,10.90
2022-09-23T07:51:19.033Z,10.90
2022-09-23T07:53:50.573Z,11.10
2022-09-23T07:56:22.565Z,11.00
2022-09-23T07:59:02.870Z,11.20
2022-09-23T08:01:36.196Z,11.30
2022-09-23T08:04:06.700Z,11.40
2022-09-23T08:06:33.824Z,11.50
2022-09-23T08:09:01.682Z,11.50
2022-09-23T08:11:28.713Z,11.60
2022-09-23T08:13:56.019Z,11.70
2022-09-23T08:16:22.922Z,11.70
2022-09-23T08:18:49.848Z,12.00
2022-09-23T08:21:21.377Z,11.90
2022-09-23T08:23:48.478Z,11.90
2022-09-23T08:26:20.934Z,12.10
2022-09-23T08:28:49.350Z,12.00
2022-09-23T08:31:16.532Z,12.10
2022-09-23T08:33:43.370Z,12.20
2022-09-23T08:36:10.123Z,12.30
2022-09-23T08:38:36.930Z,12.30
2022-09-23T08:41:22.724Z,12.30
2022-09-23T08:43:54.539Z,12.40
2022-09-23T08:46:26.607Z,12.50
2022-09-23T08:48:55.332Z,12.50
2022-09-23T08:51:46.981Z,12.50
2022-09-23T08:54:16.314Z,12.60
2022-09-23T08:56:48.547Z,12.80
2022-09-23T08:59:23.144Z,12.70
2022-09-23T09:01:53.683Z,12.90
2022-09-23T09:04:35.674Z,13.00
2022-09-23T09:07:34.762Z,13.00
2022-09-23T09:10:06.645Z,13.00
2022-09-23T09:12:43.480Z,13.00
2022-09-23T09:15:11.032Z,13.10
2022-09-23T09:17:48.337Z,13.10
2022-09-23T09:20:30.961Z,13.20
2022-09-23T09:23:00.100Z,13.20
2022-09-23T09:25:41.146Z,13.30
2022-09-23T09:28:35.901Z,13.40
2022-09-23T09:31:40.481Z,13.40
2022-09-23T09:34:22.870Z,13.50
2022-09-23T09:37:07.572Z,13.60
2022-09-23T09:39:36.283Z,13.70
2022-09-23T09:42:05.971Z,13.80
2022-09-23T09:45:02.816Z,13.80
2022-09-23T09:47:48.485Z,13.90
2022-09-23T09:50:56.447Z,14.00
2022-09-23T09:53:25.419Z,14.10
2022-09-23T09:56:05.200Z,14.20
2022-09-23T09:58:49.085Z,14.20
2022-09-23T10:01:29.520Z,14.40
2022-09-23T10:04:03.709Z,14.40
2022-09-23T10:06:35.876Z,14.50
2022-09-23T10:09:02.639Z,14.60
2022-09-23T10:11:30.911Z,14.80
2022-09-23T10:14:07.499Z,14.80
2022-09-23T10:16:35.078Z,14.80
2022-09-23T10:19:18.456Z,14.90
2022-09-23T10:21:50.802Z,14.90
2022-09-23T10:24:23.366Z,15.00
2022-09-23T10:27:04.317Z,15.00
2022-09-23T10:29:37.899Z,15.00
2022-09-23T10:32:26.665Z,15.00
2022-09-23T10:35:09.389Z,15.10
2022-09-23T10:37:46.089Z,15.10
2022-09-23T10:40:48.528Z,15.20
2022-09-23T10:43:47.484Z,15.20
2022-09-23T10:46:45.836Z,15.10
2022-09-23T10:49:39.362Z,15.10
2022-09-23T10:52:22.256Z,15.00
2022-09-23T10:55:11.787Z,15.00
2022-09-23T10:58:14.886Z,15.00
2022-09-23T11:00:41.627Z,15.00
2022-09-23T11:03:33.553Z,15.00
2022-09-23T11:06:37.382Z,15.00
2022-09-23T11:09:22.911Z,15.10
2022-09-23T11:12:16.297Z,15.20
2022-09-23T11:15:09.415Z,15.20
2022-09-23T11:18:06.459Z,15.20
2022-09-23T11:20:42.112Z,15.20
2022-09-23T11:23:21.243Z,15.20
2022-09-23T11:25:56.292Z,15.20
2022-09-23T11:29:00.355Z,15.30
2022-09-23T11:31:59.785Z,15.20
2022-09-23T11:34:34.107Z,15.30
2022-09-23T11:37:06.609Z,15.40
2022-09-23T11:40:00.045Z,15.40
2022-09-23T11:42:33.795Z,15.40
2022-09-23T11:45:27.573Z,15.40
2022-09-23T11:48:09.713Z,15.40
2022-09-23T11:50:42.350Z,15.60
2022-09-23T11:53:46.920Z,15.50
2022-09-23T11:56:35.548Z,15.60
2022-09-23T11:59:12.505Z,15.60
2022-09-23T12:01:48.360Z,15.60
2022-09-23T12:04:52.065Z,15.70
2022-09-23T12:07:34.422Z,15.70
2022-09-23T12:10:07.940Z,15.70
2022-09-23T12:12:41.887Z,15.70
2022-09-23T12:15:20.653Z,15.70
2022-09-23T12:18:10.573Z,15.70
2022-09-23T12:21:33.075Z,15.70
2022-09-23T12:24:41.187Z,15.70
2022-09-23T12:27:15.777Z,15.70
2022-09-23T12:29:42.840Z,15.70
2022-09-23T12:32:18.434Z,15.70
2022-09-23T12:34:52.009Z,15.80
2022-09-23T12:37:38.846Z,15.80
2022-09-23T12:40:09.615Z,15.80
2022-09-23T12:42:44.128Z,15.80
2022-09-23T12:45:32.809Z,15.80
2022-09-23T12:48:03.128Z,15.90
2022-09-23T12:50:58.374Z,15.90
2022-09-23T12:53:34.319Z,15.90
2022-09-23T12:56:14.270Z,16.00
2022-09-23T12:58:43.988Z,16.00
2022-09-23T13:01:19.989Z,16.00
2022-09-23T13:04:10.745Z,16.00
2022-09-23T13:07:03.920Z,16.00
2022-09-23T13:09:37.409Z,16.00
2022-09-23T13:12:14.003Z,16.00
2022-09-23T13:14:45.092Z,16.00
2022-09-23T13:17:26.005Z,16.20
2022-09-23T13:20:06.829Z,16.10
2022-09-23T13:23:02.016Z,16.20
2022-09-23T13:25:32.542Z,16.20
2022-09-23T13:28:03.928Z,16.20
2022-09-23T13:30:30.839Z,16.20
2022-09-23T13:33:10.652Z,16.30
2022-09-23T13:35:53.120Z,16.40
2022-09-23T13:38:26.289Z,16.40
2022-09-23T13:41:07.939Z,16.40
2022-09-23T13:43:41.606Z,16.40
2022-09-23T13:46:26.671Z,16.40
2022-09-23T13:48:55.407Z,16.40
2022-09-23T13:51:33.011Z,16.40
2022-09-23T13:54:02.288Z,16.60
2022-09-23T13:56:32.478Z,16.50
2022-09-23T13:59:38.016Z,16.50
2022-09-23T14:02:15.247Z,16.50
2022-09-23T14:04:42.270Z,16.40
2022-09-23T14:07:12.970Z,16.40
2022-09-23T14:09:46.237Z,16.30
2022-09-23T14:12:13.457Z,16.30
2022-09-23T14:14:43.229Z,16.30
2022-09-23T14:17:15.709Z,16.30
2022-09-23T14:19:43.181Z,16.30
2022-09-23T14:22:28.204Z,16.30
2022-09-23T14:24:56.443Z,16.40
2022-09-23T14:27:36.195Z,16.30
2022-09-23T14:30:04.295Z,16.40
2022-09-23T14:32:31.915Z,16.30
2022-09-23T14:35:05.311Z,16.30
2022-09-23T14:37:56.749Z,16.30
2022-09-23T14:40:33.734Z,16.30
2022-09-23T14:43:17.090Z,16.20
2022-09-23T14:45:48.037Z,16.30
2022-09-23T14:48:18.983Z,16.30
2022-09-23T14:50:54.589Z,16.30
2022-09-23T14:53:24.151Z,16.30
2022-09-23T14:55:53.609Z,16.30
2022-09-23T14:58:26.113Z,16.30
2022-09-23T15:00:59.450Z,16.40
2022-09-23T15:03:28.428Z,16.30
2022-09-23T15:06:08.379Z,16.30
2022-09-23T15:08:36.905Z,16.30
2022-09-23T15:11:08.057Z,16.20
2022-09-23T15:13:40.548Z,16.20
2022-09-23T15:16:07.914Z,16.10
2022-09-23T15:18:36.990Z,16.10
2022-09-23T15:21:18.590Z,16.00
2022-09-23T15:23:48.436Z,16.00
2022-09-23T15:26:26.840Z,15.90
2022-09-23T15:28:56.146Z,15.90
2022-09-23T15:31:26.435Z,15.90
2022-09-23T15:33:53.336Z,15.80
2022-09-23T15:36:22.913Z,15.80
2022-09-23T15:38:50.081Z,15.70
2022-09-23T15:41:19.481Z,15.70
2022-09-23T15:43:47.128Z,15.70
2022-09-23T15:46:20.563Z,15.70
2022-09-23T15:49:01.998Z,15.70
2022-09-23T15:51:29.149Z,15.60
2022-09-23T15:53:56.459Z,15.60
2022-09-23T15:56:24.656Z,15.60
2022-09-23T15:58:51.439Z,15.50
2022-09-23T16:01:33.903Z,15.50
2022-09-23T16:04:01.808Z,15.50
2022-09-23T16:06:28.662Z,15.40
2022-09-23T16:08:55.920Z,15.40
2022-09-23T16:11:26.881Z,15.40
2022-09-23T16:13:53.763Z,15.40
2022-09-23T16:16:23.483Z,15.30
2022-09-23T16:18:53.529Z,15.30
2022-09-23T16:21:25.808Z,15.30
2022-09-23T16:23:54.431Z,15.30
2022-09-23T16:26:27.722Z,15.20
2022-09-23T16:28:57.015Z,15.20
2022-09-23T16:31:25.567Z,15.20
2022-09-23T16:33:53.193Z,15.20
2022-09-23T16:36:32.424Z,15.20
2022-09-23T16:39:00.751Z,15.20
2022-09-23T16:41:31.882Z,15.10
2022-09-23T16:44:00.837Z,15.10
2022-09-23T16:46:29.157Z,15.10
2022-09-23T16:48:57.622Z,15.10
2022-09-23T16:51:30.267Z,15.10
2022-09-23T16:53:58.580Z,15.00
2022-09-23T16:56:29.079Z,15.00
2022-09-23T16:58:57.062Z,15.00
2022-09-23T17:01:50.220Z,15.00
2022-09-23T17:04:19.360Z,15.00
2022-09-23T17:06:50.895Z,14.90
2022-09-23T17:09:26.877Z,14.90
2022-09-23T17:12:22.700Z,14.90
2022-09-23T17:14:49.494Z,14.90
2022-09-23T17:17:16.934Z,14.90
2022-09-23T17:19:43.869Z,14.80
2022-09-23T17:22:10.661Z,14.80
2022-09-23T17:24:37.449Z,14.80
2022-09-23T17:27:04.306Z,14.80
2022-09-23T17:29:31.161Z,14.80
2022-09-23T17:31:58.155Z,14.70
2022-09-23T17:34:25.231Z,14.70
2022-09-23T17:36:52.017Z,14.70
2022-09-23T17:39:18.760Z,14.70
2022-09-23T17:41:45.526Z,14.60
2022-09-23T17:44:12.469Z,14.60
2022-09-23T17:46:39.220Z,14.60
2022-09-23T17:49:07.915Z,14.50
2022-09-23T17:51:35.021Z,14.50
2022-09-23T17:54:01.785Z,14.50
2022-09-23T17:56:29.980Z,14.50
2022-09-23T17:59:00.740Z,14.50
2022-09-23T18:01:27.736Z,14.50
2022-09-23T18:03:56.343Z,14.40
2022-09-23T18:06:24.838Z,14.40
2022-09-23T18:08:52.743Z,14.40
2022-09-23T18:11:23.936Z,14.30
2022-09-23T18:13:56.618Z,14.30
2022-09-23T18:16:29.460Z,14.30
2022-09-23T18:18:59.307Z,14.30
2022-09-23T18:21:29.651Z,14.30
2022-09-23T18:24:15.622Z,14.30
2022-09-23T18:26:45.510Z,14.30
2022-09-23T18:29:12.590Z,14.30
2022-09-23T18:31:39.532Z,14.30
2022-09-23T18:34:11.114Z,14.20
2022-09-23T18:36:38.579Z,14.20
2022-09-23T18:39:05.718Z,14.20
2022-09-23T18:41:33.037Z,14.20
2022-09-23T18:44:00.200Z,14.20
2022-09-23T18:46:31.873Z,14.20
2022-09-23T18:49:18.056Z,14.10
2022-09-23T18:51:54.537Z,14.10
2022-09-23T18:54:22.418Z,14.10
2022-09-23T18:56:52.517Z,14.10
2022-09-23T18:59:20.936Z,14.10
2022-09-23T19:01:49.947Z,14.00
2022-09-23T19:04:19.868Z,14.00
2022-09-23T19:06:47.437Z,14.00
2022-09-23T19:09:18.107Z,14.00
2022-09-23T19:11:45.073Z,14.00
2022-09-23T19:14:12.442Z,14.00
2022-09-23T19:16:40.864Z,14.00
2022-09-23T19:19:08.378Z,14.00
2022-09-23T19:21:35.652Z,14.00
2022-09-23T19:24:05.787Z,14.00
2022-09-23T19:26:40.552Z,14.00
2022-09-23T19:29:12.208Z,14.00
2022-09-23T19:31:40.082Z,14.00
2022-09-23T19:34:13.062Z,14.10
2022-09-23T19:36:42.588Z,14.10
2022-09-23T19:39:15.219Z,14.20
2022-09-23T19:41:42.677Z,14.20
2022-09-23T19:44:09.535Z,14.30
2022-09-23T19:46:40.611Z,14.30
2022-09-23T19:49:08.285Z,14.30
2022-09-23T19:51:35.552Z,14.40
2022-09-23T19:54:03.932Z,14.30
2022-09-23T19:56:32.364Z,14.40
2022-09-23T19:59:00.722Z,14.40
2022-09-23T20:01:29.390Z,14.40
2022-09-23T20:03:56.877Z,14.30
2022-09-23T20:06:23.732Z,14.30
2022-09-23T20:08:50.771Z,14.30
2022-09-23T20:11:27.573Z,14.20
2022-09-23T20:14:04.879Z,14.20
2022-09-23T20:16:37.118Z,14.10
2022-09-23T20:19:05.617Z,14.00
2022-09-23T20:21:33.822Z,14.00
2022-09-23T20:24:01.485Z,14.00
2022-09-23T20:26:46.728Z,13.90
2022-09-23T20:29:13.625Z,13.90
2022-09-23T20:31:41.090Z,13.80
2022-09-23T20:34:10.417Z,13.80
2022-09-23T20:36:40.033Z,13.70
2022-09-23T20:39:06.964Z,13.70
2022-09-23T20:41:37.421Z,13.70
2022-09-23T20:44:07.541Z,13.70
2022-09-23T20:46:35.716Z,13.60
2022-09-23T20:49:03.615Z,13.70
2022-09-23T20:51:33.190Z,13.60
2022-09-23T20:54:00.764Z,13.70
2022-09-23T20:56:28.583Z,13.60
2022-09-23T20:59:03.674Z,13.70
2022-09-23T21:01:34.977Z,13.70
2022-09-23T21:04:04.760Z,13.70
2022-09-23T21:06:31.685Z,13.60
2022-09-23T21:08:59.228Z,13.60
2022-09-23T21:11:26.353Z,13.60
2022-09-23T21:13:53.245Z,13.60
2022-09-23T21:16:22.776Z,13.60
2022-09-23T21:18:51.927Z,13.60
2022-09-23T21:21:22.015Z,13.60
2022-09-23T21:23:49.692Z,13.60
2022-09-23T21:26:19.235Z,13.60
2022-09-23T21:28:48.552Z,13.60
2022-09-23T21:31:23.255Z,13.60
2022-09-23T21:33:59.022Z,13.60
2022-09-23T21:36:27.570Z,13.50
2022-09-23T21:38:56.024Z,13.50
2022-09-23T21:41:23.754Z,13.50
2022-09-23T21:43:51.143Z,13.50
2022-09-23T21:46:22.588Z,13.50
2022-09-23T21:48:53.542Z,13.50
2022-09-23T21:51:26.028Z,13.50
2022-09-23T21:53:55.311Z,13.50
2022-09-23T21:56:24.747Z,13.40
2022-09-23T21:58:53.967Z,13.40
2022-09-23T22:01:29.322Z,13.40
2022-09-23T22:03:58.382Z,13.50
2022-09-23T22:06:27.460Z,13.40
2022-09-23T22:08:59.830Z,13.40
2022-09-23T22:11:48.804Z,13.40
2022-09-23T22:14:17.637Z,13.40
2022-09-23T22:16:45.057Z,13.40
2022-09-23T22:19:13.638Z,13.30
2022-09-23T22:21:42.069Z,13.30
2022-09-23T22:24:10.416Z,13.30
2022-09-23T22:26:39.496Z,13.30
2022-09-23T22:29:26.969Z,13.30
2022-09-23T22:32:13.085Z,13.30
2022-09-23T22:34:51.025Z,13.30
2022-09-23T22:37:25.465Z,13.20
2022-09-23T22:39:52.440Z,13.20
2022-09-23T22:42:21.934Z,13.20
2022-09-23T22:44:49.448Z,13.30
2022-09-23T23:03:40.545Z,13.20
2022-09-23T23:06:09.423Z,13.20
2022-09-23T23:08:37.254Z,13.20
2022-09-23T23:11:09.990Z,13.10
2022-09-23T23:13:40.862Z,13.20
2022-09-23T23:16:12.734Z,13.20
2022-09-23T23:18:41.581Z,13.20
2022-09-23T23:21:14.643Z,13.20
2022-09-23T23:23:48.916Z,13.10
2022-09-23T23:26:21.516Z,13.20
2022-09-23T23:28:50.252Z,13.20
2022-09-23T23:31:19.785Z,13.10
2022-09-23T23:33:47.236Z,13.10
2022-09-23T23:36:16.737Z,13.20
2022-09-23T23:38:46.178Z,13.10
2022-09-23T23:41:15.602Z,13.20
2022-09-23T23:43:45.276Z,13.20
2022-09-23T23:46:13.411Z,13.20
2022-09-23T23:48:41.826Z,13.20
2022-09-23T23:51:10.773Z,13.10
2022-09-23T23:53:39.280Z,13.10
2022-09-23T23:56:12.323Z,13.10
2022-09-23T23:58:39.433Z,13.10
